Time;durP1;ratioP1;P1;durP2;ratioP2;P2;SDS_P1;SDS_P2;PMS_P1;PMS_P2;Temp;Humidity;BMP_temperature;BMP_pressure;BME280_temperature;BME280_humidity;BME280_pressure;Samples;Min_cycle;Max_cycle;Signal;HPM_P1;HPM_P2
2022/04/11 00:01:17;;;;;;;6.13;5.20;;;;;;;;;;4995711;28;20238;-79
2022/04/11 00:03:44;;;;;;;7.30;5.30;;;;;;;;;;4995627;28;20734;-78
2022/04/11 00:06:11;;;;;;;6.17;5.33;;;;;;;;;;4995118;28;20242;-78
2022/04/11 00:08:39;;;;;;;6.10;5.37;;;;;;;;;;4995912;28;20208;-79
2022/04/11 00:11:06;;;;;;;7.87;5.33;;;;;;;;;;4998970;28;20239;-79
2022/04/11 00:13:35;;;;;;;6.20;5.60;;;;;;;;;;4998769;28;20240;-79
2022/04/11 00:16:02;;;;;;;7.57;5.57;;;;;;;;;;4998167;28;20239;-79
2022/04/11 00:18:29;;;;;;;7.87;5.80;;;;;;;;;;4998195;28;20215;-79
2022/04/11 00:20:56;;;;;;;10.03;6.23;;;;;;;;;;4997351;28;20242;-79
2022/04/11 00:23:23;;;;;;;7.97;5.73;;;;;;;;;;4998241;28;20739;-79
2022/04/11 00:25:50;;;;;;;10.97;6.30;;;;;;;;;;4998647;28;20232;-79
2022/04/11 00:28:17;;;;;;;8.53;5.50;;;;;;;;;;5000655;28;20236;-80
2022/04/11 00:30:46;;;;;;;6.40;5.40;;;;;;;;;;4997832;28;20236;-80
2022/04/11 00:33:13;;;;;;;6.93;5.67;;;;;;;;;;4999605;28;20266;-80
2022/04/11 00:35:40;;;;;;;9.13;6.00;;;;;;;;;;4999654;28;20235;-80
2022/04/11 00:38:07;;;;;;;8.97;6.27;;;;;;;;;;4999415;28;20680;-80
2022/04/11 00:40:34;;;;;;;9.90;6.17;;;;;;;;;;4999125;28;20298;-80
2022/04/11 00:43:01;;;;;;;8.40;5.60;;;;;;;;;;4998644;28;20215;-80
2022/04/11 00:45:28;;;;;;;6.50;5.83;;;;;;;;;;4996289;28;20310;-79
2022/04/11 00:47:56;;;;;;;7.40;5.60;;;;;;;;;;4997703;28;20207;-79
2022/04/11 00:50:24;;;;;;;5.57;5.07;;;;;;;;;;4996994;28;20235;-79
2022/04/11 00:52:52;;;;;;;6.83;5.57;;;;;;;;;;5004462;28;20234;-79
2022/04/11 00:55:21;;;;;;;6.93;5.57;;;;;;;;;;5017479;28;20235;-79
2022/04/11 00:57:48;;;;;;;7.87;5.50;;;;;;;;;;5017314;28;20211;-79
2022/04/11 01:00:16;;;;;;;7.47;6.10;;;;;;;;;;5017140;28;20231;-79
2022/04/11 01:02:43;;;;;;;6.03;5.43;;;;;;;;;;5010870;28;20678;-80
2022/04/11 01:05:12;;;;;;;5.93;5.43;;;;;;;;;;5015372;28;20258;-79
2022/04/11 01:07:39;;;;;;;5.83;5.33;;;;;;;;;;5011084;28;20207;-79
2022/04/11 01:10:08;;;;;;;7.43;5.67;;;;;;;;;;5015439;28;20238;-79
2022/04/11 01:12:35;;;;;;;5.73;5.10;;;;;;;;;;5012422;28;20228;-79
2022/04/11 01:15:02;;;;;;;5.87;5.37;;;;;;;;;;5013716;28;20239;-79
2022/04/11 01:17:33;;;;;;;6.70;5.63;;;;;;;;;;5022120;28;20208;-79
2022/04/11 01:20:00;;;;;;;10.07;5.00;;;;;;;;;;5031934;28;20242;-79
2022/04/11 01:22:28;;;;;;;6.87;5.77;;;;;;;;;;5024338;28;20219;-79
2022/04/11 01:24:55;;;;;;;7.03;5.37;;;;;;;;;;5023892;28;20754;-79
2022/04/11 01:27:23;;;;;;;6.30;5.70;;;;;;;;;;5017210;28;20206;-79
2022/04/11 01:29:50;;;;;;;5.77;5.17;;;;;;;;;;5015201;28;20214;-79
2022/04/11 01:32:17;;;;;;;6.83;5.73;;;;;;;;;;5014916;28;20237;-79
2022/04/11 01:34:44;;;;;;;6.03;5.50;;;;;;;;;;5014169;28;20234;-79
2022/04/11 01:37:11;;;;;;;6.77;5.43;;;;;;;;;;5014812;28;20569;-79
2022/04/11 01:39:39;;;;;;;5.73;5.23;;;;;;;;;;5013950;28;20215;-79
2022/04/11 01:42:07;;;;;;;8.07;5.30;;;;;;;;;;5015201;28;20615;-79
2022/04/11 01:44:34;;;;;;;7.37;5.50;;;;;;;;;;5014798;28;20238;-79
2022/04/11 01:47:01;;;;;;;6.07;5.27;;;;;;;;;;5014461;28;20270;-79
2022/04/11 01:49:28;;;;;;;6.70;6.00;;;;;;;;;;5013138;28;20210;-79
2022/04/11 01:51:55;;;;;;;8.30;6.57;;;;;;;;;;5013913;28;20265;-79
2022/04/11 01:54:22;;;;;;;6.97;6.27;;;;;;;;;;5013966;28;20242;-79
2022/04/11 01:56:50;;;;;;;6.77;6.00;;;;;;;;;;5013573;28;20292;-80
2022/04/11 01:59:17;;;;;;;7.80;6.00;;;;;;;;;;5013432;28;20213;-79
2022/04/11 02:01:44;;;;;;;7.90;6.00;;;;;;;;;;5013218;28;20718;-79
2022/04/11 02:04:11;;;;;;;8.57;6.10;;;;;;;;;;5013406;28;20227;-79
2022/04/11 02:06:38;;;;;;;7.30;6.03;;;;;;;;;;5012824;28;20265;-79
2022/04/11 02:09:06;;;;;;;10.97;6.23;;;;;;;;;;5014094;28;20211;-79
2022/04/11 02:11:33;;;;;;;9.53;6.50;;;;;;;;;;5013590;28;20678;-79
2022/04/11 02:14:01;;;;;;;6.43;5.73;;;;;;;;;;5014627;28;20242;-79
2022/04/11 02:16:28;;;;;;;7.67;5.80;;;;;;;;;;5019934;28;20238;-79
2022/04/11 02:18:55;;;;;;;8.37;5.67;;;;;;;;;;5027566;28;20245;-79
2022/04/11 02:21:22;;;;;;;7.80;6.20;;;;;;;;;;5027802;28;20730;-79
2022/04/11 02:23:49;;;;;;;6.27;5.60;;;;;;;;;;5022082;28;20238;-80
2022/04/11 02:26:16;;;;;;;10.27;6.20;;;;;;;;;;5013648;28;20239;-79
2022/04/11 02:28:43;;;;;;;7.60;6.40;;;;;;;;;;5014481;28;20604;-79
2022/04/11 02:31:13;;;;;;;9.47;6.43;;;;;;;;;;5013864;28;20239;-79
2022/04/11 02:33:40;;;;;;;6.30;5.70;;;;;;;;;;5014509;28;20320;-79
2022/04/11 02:36:07;;;;;;;7.10;5.60;;;;;;;;;;5013194;28;20239;-79
2022/04/11 02:38:34;;;;;;;7.50;6.10;;;;;;;;;;5013982;28;20214;-79
2022/04/11 02:41:01;;;;;;;6.57;5.97;;;;;;;;;;5013706;28;20616;-79
2022/04/11 02:43:28;;;;;;;7.90;5.97;;;;;;;;;;5013906;28;20238;-79
2022/04/11 02:45:55;;;;;;;6.33;5.63;;;;;;;;;;5013999;28;20262;-78
2022/04/11 02:48:23;;;;;;;6.27;5.63;;;;;;;;;;5013516;28;20199;-79
2022/04/11 02:50:51;;;;;;;10.23;6.40;;;;;;;;;;5013573;28;20246;-80
2022/04/11 02:53:18;;;;;;;7.87;5.73;;;;;;;;;;5013635;28;20261;-79
2022/04/11 02:55:45;;;;;;;8.10;6.40;;;;;;;;;;5014231;28;20238;-79
2022/04/11 02:58:12;;;;;;;8.30;6.50;;;;;;;;;;5014892;28;20230;-79
2022/04/11 03:00:39;;;;;;;6.67;5.97;;;;;;;;;;5016259;28;20239;-80
2022/04/11 03:03:06;;;;;;;8.77;6.10;;;;;;;;;;5004108;28;20600;-79
2022/04/11 03:05:35;;;;;;;10.20;6.47;;;;;;;;;;4997890;28;20243;-79
2022/04/11 03:08:02;;;;;;;6.87;6.27;;;;;;;;;;4998478;28;20251;-79
2022/04/11 03:10:29;;;;;;;8.43;6.63;;;;;;;;;;4997738;28;20240;-79
2022/04/11 03:12:56;;;;;;;6.07;5.27;;;;;;;;;;4998466;28;20238;-79
2022/04/11 03:15:23;;;;;;;8.20;5.77;;;;;;;;;;4997072;28;20722;-79
2022/04/11 03:17:50;;;;;;;7.07;5.77;;;;;;;;;;4998235;28;20215;-79
2022/04/11 03:20:17;;;;;;;6.57;5.70;;;;;;;;;;4997033;28;20746;-79
2022/04/11 03:22:46;;;;;;;8.40;5.93;;;;;;;;;;4999371;28;20214;-79
2022/04/11 03:25:13;;;;;;;7.80;5.77;;;;;;;;;;4997226;28;20615;-79
2022/04/11 03:27:40;;;;;;;5.97;5.40;;;;;;;;;;4997640;28;20211;-79
2022/04/11 03:30:08;;;;;;;7.73;5.73;;;;;;;;;;4996399;28;20241;-79
2022/04/11 03:32:35;;;;;;;7.10;5.93;;;;;;;;;;4997009;28;20254;-79
2022/04/11 03:35:02;;;;;;;7.53;5.90;;;;;;;;;;4998111;28;20713;-79
2022/04/11 03:37:29;;;;;;;8.57;6.57;;;;;;;;;;5008260;28;20216;-79
2022/04/11 03:39:58;;;;;;;7.80;6.37;;;;;;;;;;5006429;28;20250;-79
2022/04/11 03:42:25;;;;;;;10.10;6.47;;;;;;;;;;5008399;28;20207;-79
2022/04/11 03:44:52;;;;;;;7.63;6.67;;;;;;;;;;5005138;28;20232;-79
2022/04/11 03:47:19;;;;;;;11.53;6.97;;;;;;;;;;5006415;28;20211;-79
2022/04/11 03:49:46;;;;;;;8.27;6.93;;;;;;;;;;4998417;28;20218;-79
2022/04/11 03:52:13;;;;;;;8.30;7.00;;;;;;;;;;4994973;28;20581;-79
2022/04/11 03:54:40;;;;;;;10.23;7.20;;;;;;;;;;4993877;28;20239;-79
2022/04/11 03:57:09;;;;;;;10.77;7.20;;;;;;;;;;4994914;28;20224;-79
2022/04/11 03:59:38;;;;;;;9.60;7.03;;;;;;;;;;4994005;28;20219;-79
2022/04/11 04:02:05;;;;;;;9.63;7.13;;;;;;;;;;4994499;28;20219;-79
2022/04/11 04:04:32;;;;;;;7.00;6.33;;;;;;;;;;4994207;28;20230;-79
2022/04/11 04:06:59;;;;;;;10.73;7.10;;;;;;;;;;4993780;28;20231;-79
2022/04/11 04:09:26;;;;;;;9.57;7.13;;;;;;;;;;4994121;28;20265;-79
2022/04/11 04:11:53;;;;;;;8.80;7.30;;;;;;;;;;4993825;28;20238;-79
2022/04/11 04:14:22;;;;;;;11.23;7.40;;;;;;;;;;4993775;28;20234;-79
2022/04/11 04:16:49;;;;;;;8.30;6.83;;;;;;;;;;4996033;28;20247;-79
2022/04/11 04:19:16;;;;;;;9.63;6.30;;;;;;;;;;4994437;28;20207;-79
2022/04/11 04:21:43;;;;;;;9.07;6.83;;;;;;;;;;4994176;28;20235;-79
2022/04/11 04:24:10;;;;;;;8.23;6.40;;;;;;;;;;4994531;28;20237;-79
2022/04/11 04:26:37;;;;;;;9.23;6.60;;;;;;;;;;4994031;28;20242;-79
2022/04/11 04:29:04;;;;;;;7.50;6.53;;;;;;;;;;4994590;28;20208;-79
2022/04/11 04:31:34;;;;;;;9.97;6.87;;;;;;;;;;4994369;28;20238;-79
2022/04/11 04:34:01;;;;;;;7.60;6.80;;;;;;;;;;4994539;28;20228;-79
2022/04/11 04:36:28;;;;;;;8.43;6.80;;;;;;;;;;4994188;28;20243;-79
2022/04/11 04:38:55;;;;;;;8.40;6.70;;;;;;;;;;4994305;28;20682;-79
2022/04/11 04:41:22;;;;;;;8.40;6.60;;;;;;;;;;4994023;28;20288;-79
2022/04/11 04:43:50;;;;;;;10.57;6.07;;;;;;;;;;4995266;28;20238;-79
2022/04/11 04:46:17;;;;;;;9.10;6.70;;;;;;;;;;4993821;28;20244;-79
2022/04/11 04:48:45;;;;;;;8.90;6.40;;;;;;;;;;4994652;28;20215;-79
2022/04/11 04:51:12;;;;;;;7.17;5.70;;;;;;;;;;4993641;28;20745;-79
2022/04/11 04:53:39;;;;;;;8.17;6.00;;;;;;;;;;4995130;28;20240;-79
2022/04/11 04:56:06;;;;;;;9.53;6.80;;;;;;;;;;4994626;28;20612;-79
2022/04/11 04:58:33;;;;;;;7.67;6.97;;;;;;;;;;4994372;28;20223;-79
2022/04/11 05:01:00;;;;;;;6.93;6.07;;;;;;;;;;4994385;28;20250;-79
2022/04/11 05:03:27;;;;;;;7.97;7.03;;;;;;;;;;5012894;28;20715;-79
2022/04/11 05:05:56;;;;;;;8.40;7.13;;;;;;;;;;5015272;28;20325;-79
2022/04/11 05:08:23;;;;;;;9.63;7.17;;;;;;;;;;5013440;28;20211;-79
2022/04/11 05:10:50;;;;;;;10.10;7.37;;;;;;;;;;5015696;28;20244;-79
2022/04/11 05:13:17;;;;;;;8.17;7.37;;;;;;;;;;5023592;28;20241;-80
2022/04/11 05:15:46;;;;;;;11.17;7.70;;;;;;;;;;5025646;28;20733;-79
2022/04/11 05:18:13;;;;;;;12.90;8.20;;;;;;;;;;5019487;28;20221;-79
2022/04/11 05:20:40;;;;;;;9.27;7.07;;;;;;;;;;5019139;28;20652;-80
2022/04/11 05:23:09;;;;;;;13.77;8.40;;;;;;;;;;5025975;28;20206;-79
2022/04/11 05:25:36;;;;;;;10.17;7.53;;;;;;;;;;5010220;28;20244;-80
2022/04/11 05:28:04;;;;;;;12.53;8.37;;;;;;;;;;5013963;28;20210;-79
2022/04/11 05:30:35;;;;;;;9.47;7.60;;;;;;;;;;5016584;28;20234;-80
2022/04/11 05:33:02;;;;;;;11.30;8.43;;;;;;;;;;5014685;28;20732;-80
2022/04/11 05:35:29;;;;;;;11.27;8.40;;;;;;;;;;5008970;28;20238;-81
2022/04/11 05:37:56;;;;;;;11.73;8.53;;;;;;;;;;5013633;28;20614;-80
2022/04/11 05:40:24;;;;;;;11.37;8.10;;;;;;;;;;5012333;28;20244;-80
2022/04/11 05:42:51;;;;;;;14.70;9.17;;;;;;;;;;5012064;28;20210;-79
2022/04/11 05:45:20;;;;;;;9.67;8.27;;;;;;;;;;5002862;28;20239;-80
2022/04/11 05:47:48;;;;;;;11.03;8.67;;;;;;;;;;5016795;28;20201;-80
2022/04/11 05:50:15;;;;;;;14.40;9.23;;;;;;;;;;5013786;28;20232;-80
2022/04/11 05:52:42;;;;;;;14.73;9.40;;;;;;;;;;5016289;28;20216;-79
2022/04/11 05:55:09;;;;;;;13.97;9.30;;;;;;;;;;5009939;28;20245;-80
2022/04/11 05:57:37;;;;;;;13.37;10.10;;;;;;;;;;5017417;28;20214;-80
2022/04/11 06:00:05;;;;;;;11.07;9.33;;;;;;;;;;5004409;28;20235;-80
2022/04/11 06:02:32;;;;;;;16.70;9.93;;;;;;;;;;5012665;28;20229;-79
2022/04/11 06:04:59;;;;;;;14.03;10.37;;;;;;;;;;5015896;28;20234;-81
2022/04/11 06:07:27;;;;;;;14.07;10.30;;;;;;;;;;5006488;28;20568;-81
2022/04/11 06:09:55;;;;;;;12.73;9.60;;;;;;;;;;5006010;28;21501;-79
2022/04/11 06:12:24;;;;;;;14.70;10.97;;;;;;;;;;5016585;28;20202;-80
2022/04/11 06:14:54;;;;;;;16.33;10.63;;;;;;;;;;5012403;28;20261;-80
2022/04/11 06:17:23;;;;;;;16.50;11.93;;;;;;;;;;5016085;28;20200;-80
2022/04/11 06:19:50;;;;;;;13.93;11.07;;;;;;;;;;5014663;28;20215;-81
2022/04/11 06:22:18;;;;;;;15.33;11.40;;;;;;;;;;5019095;28;20199;-79
2022/04/11 06:24:45;;;;;;;26.90;12.90;;;;;;;;;;5024830;28;20211;-80
2022/04/11 06:27:12;;;;;;;21.20;12.80;;;;;;;;;;5026982;28;20213;-80
2022/04/11 06:29:39;;;;;;;17.63;12.17;;;;;;;;;;5027156;28;20210;-80
2022/04/11 06:32:08;;;;;;;18.07;11.47;;;;;;;;;;5024164;28;20207;-80
2022/04/11 06:34:35;;;;;;;22.27;12.23;;;;;;;;;;5023347;28;20243;-79
2022/04/11 06:37:02;;;;;;;19.30;12.90;;;;;;;;;;5030831;28;20209;-79
2022/04/11 06:39:29;;;;;;;20.70;12.10;;;;;;;;;;5036877;28;20215;-79
2022/04/11 06:41:56;;;;;;;18.00;11.40;;;;;;;;;;5037468;28;20227;-79
2022/04/11 06:44:24;;;;;;;19.53;12.60;;;;;;;;;;5031745;28;20235;-79
2022/04/11 06:46:51;;;;;;;18.57;13.37;;;;;;;;;;5020181;28;20266;-80
2022/04/11 06:49:20;;;;;;;21.67;13.33;;;;;;;;;;5014076;28;20199;-80
2022/04/11 06:51:47;;;;;;;22.10;13.80;;;;;;;;;;5035187;28;20271;-81
2022/04/11 06:54:14;;;;;;;17.60;12.43;;;;;;;;;;5024557;28;20234;-80
2022/04/11 06:56:41;;;;;;;18.77;11.57;;;;;;;;;;5021563;28;20239;-81
2022/04/11 06:59:08;;;;;;;13.33;10.57;;;;;;;;;;5022307;28;20692;-79
2022/04/11 07:01:35;;;;;;;11.17;9.37;;;;;;;;;;5030716;28;20233;-79
2022/04/11 07:04:02;;;;;;;11.00;8.77;;;;;;;;;;5022945;28;20238;-79
2022/04/11 07:06:30;;;;;;;10.40;7.93;;;;;;;;;;4998852;28;20720;-79
2022/04/11 07:08:57;;;;;;;14.93;7.10;;;;;;;;;;5001230;28;20220;-79
2022/04/11 07:11:24;;;;;;;8.10;7.20;;;;;;;;;;5004359;28;20273;-80
2022/04/11 07:13:51;;;;;;;7.20;6.47;;;;;;;;;;5005613;28;20235;-79
2022/04/11 07:16:18;;;;;;;8.03;7.00;;;;;;;;;;5005258;28;20236;-79
2022/04/11 07:18:46;;;;;;;7.47;6.57;;;;;;;;;;5004052;28;20244;-79
2022/04/11 07:21:13;;;;;;;6.90;5.50;;;;;;;;;;5007277;28;20234;-79
2022/04/11 07:23:41;;;;;;;6.17;5.40;;;;;;;;;;5027584;28;20716;-80
2022/04/11 07:26:08;;;;;;;5.90;5.30;;;;;;;;;;5019883;28;20231;-80
2022/04/11 07:28:35;;;;;;;10.47;5.43;;;;;;;;;;5026087;28;20229;-80
2022/04/11 07:31:02;;;;;;;5.77;4.63;;;;;;;;;;5039793;28;20244;-80
2022/04/11 07:33:29;;;;;;;6.97;4.57;;;;;;;;;;5045718;28;20237;-80
2022/04/11 07:35:56;;;;;;;7.80;4.27;;;;;;;;;;5045340;28;20852;-80
2022/04/11 07:38:23;;;;;;;5.87;4.37;;;;;;;;;;5044619;28;20202;-79
2022/04/11 07:40:52;;;;;;;5.00;4.37;;;;;;;;;;5043813;28;20238;-80
2022/04/11 07:43:19;;;;;;;4.67;4.20;;;;;;;;;;5023691;28;20230;-80
2022/04/11 07:45:46;;;;;;;4.93;4.30;;;;;;;;;;5010105;28;20235;-81
2022/04/11 07:48:13;;;;;;;4.47;4.00;;;;;;;;;;5001768;28;20216;-80
2022/04/11 07:50:40;;;;;;;5.07;4.10;;;;;;;;;;5019014;28;20601;-81
2022/04/11 07:53:07;;;;;;;5.80;4.10;;;;;;;;;;5028862;28;20211;-81
2022/04/11 07:55:34;;;;;;;13.90;4.20;;;;;;;;;;5037515;28;20251;-81
2022/04/11 07:58:03;;;;;;;3.97;3.50;;;;;;;;;;5036036;28;20357;-81
2022/04/11 08:00:30;;;;;;;4.20;3.63;;;;;;;;;;5032582;28;20253;-82
2022/04/11 08:02:57;;;;;;;4.00;3.40;;;;;;;;;;5036767;28;20587;-80
2022/04/11 08:05:25;;;;;;;6.17;3.73;;;;;;;;;;5035639;28;20249;-82
2022/04/11 08:07:52;;;;;;;8.60;3.10;;;;;;;;;;5033991;28;20214;-82
2022/04/11 08:10:21;;;;;;;3.93;2.97;;;;;;;;;;5034572;28;20701;-82
2022/04/11 08:12:52;;;;;;;3.47;2.90;;;;;;;;;;5006185;28;20204;-82
2022/04/11 08:15:20;;;;;;;3.33;2.97;;;;;;;;;;5007841;28;20290;-83
2022/04/11 08:17:47;;;;;;;4.37;3.50;;;;;;;;;;5014249;28;20207;-82
2022/04/11 08:20:15;;;;;;;2.83;2.23;;;;;;;;;;5005023;28;20235;-81
2022/04/11 08:22:42;;;;;;;3.67;2.87;;;;;;;;;;4995089;28;20216;-82
2022/04/11 08:25:10;;;;;;;2.93;2.63;;;;;;;;;;4993545;28;20236;-81
2022/04/11 08:27:37;;;;;;;3.67;2.80;;;;;;;;;;4994339;28;20212;-82
2022/04/11 08:30:04;;;;;;;6.20;2.63;;;;;;;;;;4993685;28;20235;-79
2022/04/11 08:32:39;;;;;;;2.93;2.63;;;;;;;;;;4993772;28;20262;-82
2022/04/11 08:35:06;;;;;;;4.27;2.47;;;;;;;;;;4994809;28;20289;-80
2022/04/11 08:37:37;;;;;;;3.47;2.47;;;;;;;;;;4995800;28;20223;-82
2022/04/11 08:40:04;;;;;;;2.43;2.23;;;;;;;;;;4997722;28;20259;-81
2022/04/11 08:42:31;;;;;;;2.57;2.30;;;;;;;;;;5012512;28;20211;-81
2022/04/11 08:44:59;;;;;;;2.73;2.20;;;;;;;;;;5009838;28;20240;-81
2022/04/11 08:47:26;;;;;;;3.13;2.23;;;;;;;;;;4996784;28;20208;-81
2022/04/11 08:49:55;;;;;;;3.77;2.30;;;;;;;;;;4997418;28;20212;-81
2022/04/11 08:52:23;;;;;;;2.33;2.17;;;;;;;;;;4998897;28;20227;-81
2022/04/11 08:54:50;;;;;;;5.10;2.27;;;;;;;;;;4994073;28;20242;-82
2022/04/11 08:57:17;;;;;;;2.50;2.20;;;;;;;;;;4993918;28;20212;-81
2022/04/11 08:59:44;;;;;;;3.03;2.33;;;;;;;;;;4992977;28;20208;-81
2022/04/11 09:02:11;;;;;;;2.70;2.20;;;;;;;;;;4993362;28;20215;-81
2022/04/11 09:04:49;;;;;;;4.43;2.33;;;;;;;;;;4992898;28;20731;-81
2022/04/11 09:07:17;;;;;;;2.40;2.10;;;;;;;;;;4993207;28;20250;-82
2022/04/11 09:09:44;;;;;;;5.90;2.50;;;;;;;;;;4993172;28;20668;-83
2022/04/11 09:12:12;;;;;;;3.27;2.20;;;;;;;;;;4996334;28;20211;-81
2022/04/11 09:14:40;;;;;;;2.43;2.00;;;;;;;;;;5013639;28;20239;-81
2022/04/11 09:17:09;;;;;;;2.73;1.87;;;;;;;;;;5003455;28;20573;-82
2022/04/11 09:19:38;;;;;;;2.87;1.93;;;;;;;;;;4996689;28;20222;-81
2022/04/11 09:22:05;;;;;;;3.73;2.10;;;;;;;;;;4994675;28;20218;-81
2022/04/11 09:24:34;;;;;;;2.03;1.63;;;;;;;;;;4994056;28;20232;-81
2022/04/11 09:27:02;;;;;;;6.07;2.20;;;;;;;;;;4994781;28;20224;-81
2022/04/11 09:29:32;;;;;;;1.93;1.70;;;;;;;;;;4994926;28;20208;-83
2022/04/11 09:32:05;;;;;;;2.43;1.63;;;;;;;;;;5013821;28;20232;-82
2022/04/11 09:34:32;;;;;;;1.93;1.73;;;;;;;;;;5032961;28;20239;-82
2022/04/11 09:37:02;;;;;;;3.30;1.40;;;;;;;;;;5029215;28;20226;-82
2022/04/11 09:39:30;;;;;;;2.73;1.80;;;;;;;;;;5026128;28;20214;-82
2022/04/11 09:41:59;;;;;;;1.60;1.50;;;;;;;;;;5021802;28;20630;-83
2022/04/11 09:44:27;;;;;;;3.13;2.28;;;;;;;;;;5013034;28;20754;-83
2022/04/11 09:46:54;;;;;;;2.58;1.65;;;;;;;;;;5012005;28;20238;-82
2022/04/11 09:49:22;;;;;;;2.28;1.50;;;;;;;;;;5011864;28;20211;-82
2022/04/11 09:52:02;;;;;;;1.60;1.50;;;;;;;;;;5011939;28;20262;-83
2022/04/11 09:54:29;;;;;;;1.30;1.20;;;;;;;;;;5010078;28;20302;-82
2022/04/11 09:56:59;;;;;;;1.95;1.50;;;;;;;;;;5011783;28;20305;-82
2022/04/11 09:59:26;;;;;;;2.17;1.88;;;;;;;;;;5011718;28;20203;-82
2022/04/11 10:01:54;;;;;;;1.30;1.20;;;;;;;;;;5011842;28;20239;-82
2022/04/11 10:04:21;;;;;;;2.00;1.85;;;;;;;;;;5012069;28;20293;-83
2022/04/11 10:06:49;;;;;;;2.63;1.60;;;;;;;;;;5011529;28;20242;-82
2022/04/11 10:09:19;;;;;;;2.05;1.45;;;;;;;;;;5011524;28;20694;-83
2022/04/11 10:11:46;;;;;;;1.50;1.40;;;;;;;;;;5011014;28;20290;-83
2022/04/11 10:14:17;;;;;;;1.70;1.50;;;;;;;;;;5012070;28;20231;-82
2022/04/11 10:16:45;;;;;;;2.20;1.52;;;;;;;;;;5012558;28;20235;-83
2022/04/11 10:19:12;;;;;;;3.22;1.50;;;;;;;;;;5011012;28;20626;-82
2022/04/11 10:21:41;;;;;;;2.38;1.40;;;;;;;;;;5012438;28;20230;-83
2022/04/11 10:24:13;;;;;;;1.27;1.23;;;;;;;;;;5011753;28;20231;-83
2022/04/11 10:26:52;;;;;;;2.60;1.30;;;;;;;;;;5018068;28;20242;-83
2022/04/11 10:29:32;;;;;;;1.80;1.60;;;;;;;;;;4998135;28;20218;-83
2022/04/11 10:32:07;;;;;;;1.52;1.20;;;;;;;;;;4993512;28;20762;-83
2022/04/11 10:34:51;;;;;;;1.98;1.38;;;;;;;;;;4992804;28;20242;-83
2022/04/11 10:37:18;;;;;;;1.48;1.38;;;;;;;;;;4993024;28;20232;-83
2022/04/11 10:39:45;;;;;;;1.92;1.20;;;;;;;;;;4991499;28;20211;-83
2022/04/11 10:42:17;;;;;;;4.43;1.52;;;;;;;;;;4994980;28;20215;-84
2022/04/11 10:44:46;;;;;;;7.53;1.48;;;;;;;;;;4991827;28;20716;-83
2022/04/11 10:47:26;;;;;;;1.98;1.77;;;;;;;;;;4992786;28;20211;-83
2022/04/11 10:50:12;;;;;;;2.20;1.30;;;;;;;;;;4991711;28;20266;-83
2022/04/11 10:52:41;;;;;;;2.30;1.10;;;;;;;;;;4993687;28;20270;-82
2022/04/11 10:55:09;;;;;;;2.28;1.65;;;;;;;;;;4996746;28;20259;-83
2022/04/11 10:57:37;;;;;;;1.75;1.10;;;;;;;;;;4996966;28;20212;-83
2022/04/11 11:00:09;;;;;;;1.52;1.40;;;;;;;;;;4993803;28;20239;-83
2022/04/11 11:02:56;;;;;;;2.38;1.40;;;;;;;;;;4992451;28;20212;-83
2022/04/11 11:05:24;;;;;;;4.70;1.70;;;;;;;;;;4991785;28;20669;-83
2022/04/11 11:07:51;;;;;;;1.50;1.40;;;;;;;;;;4992105;28;20254;-83
2022/04/11 11:10:28;;;;;;;1.48;1.38;;;;;;;;;;4991001;28;20239;-83
2022/04/11 11:13:21;;;;;;;1.52;1.42;;;;;;;;;;4991965;28;20208;-82
2022/04/11 11:15:49;;;;;;;1.88;1.23;;;;;;;;;;4990932;28;20266;-82
2022/04/11 11:18:16;;;;;;;5.20;1.92;;;;;;;;;;4991323;28;20673;-83
2022/04/11 11:20:51;;;;;;;1.98;1.30;;;;;;;;;;4991787;28;20244;-83
2022/04/11 11:23:23;;;;;;;2.05;1.40;;;;;;;;;;4993695;28;20692;-83
2022/04/11 11:25:51;;;;;;;2.53;1.50;;;;;;;;;;5021028;28;20242;-83
2022/04/11 11:28:18;;;;;;;3.10;1.42;;;;;;;;;;5014176;28;20198;-83
2022/04/11 11:30:46;;;;;;;4.80;1.50;;;;;;;;;;5013873;28;20601;-83
2022/04/11 11:33:18;;;;;;;1.42;1.33;;;;;;;;;;5015835;28;20211;-83
2022/04/11 11:35:46;;;;;;;1.88;1.25;;;;;;;;;;5015773;28;20315;-83
2022/04/11 11:38:14;;;;;;;1.58;1.40;;;;;;;;;;5013423;28;20233;-83
2022/04/11 11:40:44;;;;;;;1.17;0.95;;;;;;;;;;5013982;28;20647;-84
2022/04/11 11:43:13;;;;;;;3.47;1.52;;;;;;;;;;5031738;28;20230;-83
2022/04/11 11:45:41;;;;;;;1.40;1.30;;;;;;;;;;5033850;28;20238;-83
2022/04/11 11:48:22;;;;;;;1.88;1.40;;;;;;;;;;5035560;28;20229;-83
2022/04/11 11:50:50;;;;;;;3.38;1.70;;;;;;;;;;5020237;28;20239;-83
2022/04/11 11:53:17;;;;;;;2.35;1.63;;;;;;;;;;5028367;28;20289;-83
2022/04/11 11:55:58;;;;;;;2.60;1.75;;;;;;;;;;5019015;28;20247;-83
2022/04/11 11:58:35;;;;;;;1.95;1.38;;;;;;;;;;5010481;28;20206;-83
2022/04/11 12:01:02;;;;;;;2.22;1.77;;;;;;;;;;5018505;28;20243;-83
2022/04/11 12:06:23;;;;;;;4.30;1.73;;;;;;;;;;5019274;28;20254;-83
2022/04/11 12:08:55;;;;;;;2.90;1.83;;;;;;;;;;5022368;28;20213;-83
2022/04/11 12:11:23;;;;;;;5.82;1.92;;;;;;;;;;5020987;28;20235;-83
2022/04/11 12:13:50;;;;;;;4.15;1.90;;;;;;;;;;5021982;28;20232;-84
2022/04/11 12:16:17;;;;;;;2.22;1.75;;;;;;;;;;5018003;28;20243;-83
2022/04/11 12:18:49;;;;;;;2.53;2.33;;;;;;;;;;5014239;28;20328;-83
2022/04/11 12:21:16;;;;;;;1.60;1.50;;;;;;;;;;5019749;28;20598;-83
2022/04/11 12:23:48;;;;;;;2.22;1.95;;;;;;;;;;5020204;28;20231;-83
2022/04/11 12:26:25;;;;;;;2.38;1.70;;;;;;;;;;5016786;28;20231;-84
2022/04/11 12:28:52;;;;;;;2.78;1.63;;;;;;;;;;5034198;28;20237;-83
2022/04/11 12:31:19;;;;;;;2.22;1.40;;;;;;;;;;4998158;28;20243;-84
2022/04/11 12:33:49;;;;;;;1.98;1.35;;;;;;;;;;4993598;28;20263;-84
2022/04/11 12:36:19;;;;;;;1.55;1.30;;;;;;;;;;4998671;28;20287;-83
2022/04/11 12:38:47;;;;;;;1.95;1.77;;;;;;;;;;4999030;28;20200;-83
2022/04/11 12:41:32;;;;;;;1.60;1.50;;;;;;;;;;5002019;28;20235;-83
2022/04/11 12:44:17;;;;;;;1.02;1.02;;;;;;;;;;5027460;28;20707;-84
2022/04/11 12:46:45;;;;;;;1.90;1.52;;;;;;;;;;5015876;28;20735;-84
2022/04/11 12:49:13;;;;;;;2.05;1.38;;;;;;;;;;5012984;28;20207;-83
2022/04/11 12:51:42;;;;;;;1.40;1.30;;;;;;;;;;5012564;28;20239;-84
2022/04/11 12:54:10;;;;;;;1.92;1.20;;;;;;;;;;5012896;28;20239;-84
2022/04/11 12:56:39;;;;;;;1.45;1.30;;;;;;;;;;5012162;28;20239;-84
2022/04/11 12:59:06;;;;;;;2.15;1.60;;;;;;;;;;5012673;28;20203;-84
2022/04/11 13:01:52;;;;;;;3.05;1.75;;;;;;;;;;5012041;28;20239;-84
2022/04/11 13:04:19;;;;;;;3.08;1.70;;;;;;;;;;5012802;28;20238;-83
2022/04/11 13:06:49;;;;;;;3.50;1.58;;;;;;;;;;5012468;28;20234;-83
2022/04/11 13:09:16;;;;;;;2.05;1.63;;;;;;;;;;5012096;28;20211;-84
2022/04/11 13:11:43;;;;;;;2.30;1.67;;;;;;;;;;5012020;28;20243;-84
2022/04/11 13:14:10;;;;;;;2.17;1.80;;;;;;;;;;5012384;28;20230;-84
2022/04/11 13:19:23;;;;;;;1.52;1.42;;;;;;;;;;5012059;28;20261;-84
2022/04/11 13:21:51;;;;;;;1.83;1.63;;;;;;;;;;5007501;28;20235;-84
2022/04/11 13:24:18;;;;;;;3.15;1.73;;;;;;;;;;5012444;28;20234;-84
2022/04/11 13:26:46;;;;;;;3.78;1.67;;;;;;;;;;5011846;28;20227;-84
2022/04/11 13:29:13;;;;;;;2.53;1.88;;;;;;;;;;5012047;28;20211;-84
2022/04/11 13:31:40;;;;;;;3.63;1.98;;;;;;;;;;5011924;28;20254;-84
2022/04/11 13:34:08;;;;;;;2.72;1.58;;;;;;;;;;5011965;28;20240;-84
2022/04/11 13:36:35;;;;;;;2.40;1.48;;;;;;;;;;5011479;28;20239;-84
2022/04/11 13:39:03;;;;;;;1.90;1.65;;;;;;;;;;5011830;28;20580;-84
2022/04/11 13:41:32;;;;;;;2.88;1.90;;;;;;;;;;5011222;28;20243;-84
2022/04/11 13:44:00;;;;;;;3.08;1.80;;;;;;;;;;5011640;28;20330;-84
2022/04/11 13:46:27;;;;;;;1.80;1.70;;;;;;;;;;5010654;28;20614;-84
2022/04/11 13:48:55;;;;;;;2.67;2.42;;;;;;;;;;5011419;28;20235;-84
2022/04/11 13:51:22;;;;;;;2.38;1.70;;;;;;;;;;5011438;28;20261;-84
2022/04/11 13:53:49;;;;;;;1.60;1.50;;;;;;;;;;5011816;28;20232;-84
2022/04/11 13:56:18;;;;;;;4.07;2.13;;;;;;;;;;5011491;28;20315;-83
2022/04/11 13:58:45;;;;;;;1.95;1.70;;;;;;;;;;5012166;28;20218;-83
2022/04/11 14:01:12;;;;;;;2.75;2.42;;;;;;;;;;5019587;28;20245;-82
2022/04/11 14:03:39;;;;;;;2.88;2.58;;;;;;;;;;5023957;28;20227;-83
2022/04/11 14:06:06;;;;;;;1.70;1.60;;;;;;;;;;5031135;28;20722;-82
2022/04/11 14:08:33;;;;;;;2.15;2.05;;;;;;;;;;5031691;28;20233;-82
2022/04/11 14:11:01;;;;;;;2.08;1.80;;;;;;;;;;5034181;28;20235;-82
2022/04/11 14:13:30;;;;;;;1.77;1.52;;;;;;;;;;5033075;28;20707;-82
2022/04/11 14:15:57;;;;;;;2.40;1.92;;;;;;;;;;5032241;28;20239;-83
2022/04/11 14:18:24;;;;;;;2.15;1.73;;;;;;;;;;5032937;28;20219;-83
2022/04/11 14:20:51;;;;;;;2.45;2.10;;;;;;;;;;5034554;28;20246;-83
2022/04/11 14:23:19;;;;;;;2.30;1.80;;;;;;;;;;5034056;28;20741;-82
2022/04/11 14:25:46;;;;;;;2.70;1.80;;;;;;;;;;5033881;28;20231;-83
2022/04/11 14:28:13;;;;;;;3.45;2.00;;;;;;;;;;5025446;28;20676;-82
2022/04/11 14:30:42;;;;;;;3.03;1.85;;;;;;;;;;4993565;28;20236;-83
2022/04/11 14:33:09;;;;;;;2.17;1.92;;;;;;;;;;4994497;28;20208;-82
2022/04/11 14:35:36;;;;;;;4.40;1.90;;;;;;;;;;4993646;28;20243;-82
2022/04/11 14:38:05;;;;;;;3.88;2.40;;;;;;;;;;4994626;28;20208;-83
2022/04/11 14:40:32;;;;;;;2.67;2.00;;;;;;;;;;4993224;28;20238;-82
2022/04/11 14:42:59;;;;;;;4.32;1.98;;;;;;;;;;4994215;28;20212;-82
2022/04/11 14:45:27;;;;;;;3.60;1.90;;;;;;;;;;4993762;28;20726;-83
2022/04/11 14:47:55;;;;;;;3.40;1.70;;;;;;;;;;4994159;28;20588;-82
2022/04/11 14:50:23;;;;;;;2.40;1.90;;;;;;;;;;4993073;28;20231;-82
2022/04/11 14:52:50;;;;;;;2.83;1.70;;;;;;;;;;4994082;28;20574;-82